Time;durP1;ratioP1;P1;durP2;ratioP2;P2;SDS_P1;SDS_P2;PMS_P1;PMS_P2;Temp;Humidity;BMP_temperature;BMP_pressure;BME280_temperature;BME280_humidity;BME280_pressure;Samples;Min_cycle;Max_cycle;Signal;HPM_P1;HPM_P2
2023/04/15 00:00:09;;;;;;;106.05;49.03;;;;;;;23.36;53.49;98273.63;5025001;28;20042;-61
2023/04/15 00:02:41;;;;;;;106.47;51.25;;;;;;;23.36;53.37;98276.31;5025067;28;20045;-62
2023/04/15 00:05:10;;;;;;;92.18;47.83;;;;;;;23.32;53.65;98282.59;5026423;28;20160;-62
2023/04/15 00:07:40;;;;;;;100.75;46.40;;;;;;;23.28;53.75;98283.13;5021869;28;20049;-63
2023/04/15 00:10:09;;;;;;;96.25;46.53;;;;;;;23.24;53.50;98289.41;5026503;28;20069;-64
2023/04/15 00:12:40;;;;;;;97.18;45.47;;;;;;;23.23;53.77;98277.00;5024859;28;20058;-61
2023/04/15 00:15:11;;;;;;;97.75;45.65;;;;;;;23.22;53.15;98284.28;5020216;28;20476;-62
2023/04/15 00:17:40;;;;;;;96.30;44.17;;;;;;;23.15;53.01;98286.50;5022151;28;20064;-61
2023/04/15 00:20:10;;;;;;;81.05;42.72;;;;;;;23.07;53.23;98289.00;5022779;28;20048;-61
2023/04/15 00:22:39;;;;;;;85.13;41.58;;;;;;;23.00;53.15;98289.34;5023504;28;20686;-61
2023/04/15 00:25:09;;;;;;;83.47;39.83;;;;;;;22.95;53.17;98294.78;5022633;28;20073;-61
2023/04/15 00:27:39;;;;;;;88.25;40.35;;;;;;;22.89;53.55;98290.50;5022247;28;20060;-62
2023/04/15 00:30:08;;;;;;;80.40;40.92;;;;;;;22.91;53.69;98295.63;5012891;28;20050;-63
2023/04/15 00:32:38;;;;;;;73.15;38.63;;;;;;;22.90;54.19;98302.13;5014675;28;20080;-62
2023/04/15 00:35:08;;;;;;;80.07;39.42;;;;;;;22.84;54.35;98307.56;5024450;28;20042;-62
2023/04/15 00:37:37;;;;;;;82.07;39.75;;;;;;;22.84;54.51;98309.44;5021663;28;20717;-61
2023/04/15 00:40:12;;;;;;;89.22;41.13;;;;;;;22.81;55.02;98312.72;5006946;28;20639;-62
2023/04/15 00:42:43;;;;;;;88.18;44.03;;;;;;;22.79;54.32;98317.59;4996484;28;20325;-64
2023/04/15 00:45:14;;;;;;;93.97;43.58;;;;;;;22.79;54.52;98323.00;5024728;28;20411;-63
2023/04/15 00:47:44;;;;;;;90.43;44.60;;;;;;;22.75;54.38;98325.44;5034744;28;20063;-64
2023/04/15 00:50:14;;;;;;;85.75;44.17;;;;;;;22.76;53.93;98332.47;5035264;28;20049;-65
2023/04/15 00:52:43;;;;;;;89.53;44.25;;;;;;;22.74;53.83;98331.94;5011245;28;20522;-62
2023/04/15 00:55:13;;;;;;;90.82;42.40;;;;;;;22.74;53.76;98333.84;5044435;28;20045;-62
2023/04/15 00:57:43;;;;;;;90.70;42.95;;;;;;;22.76;54.25;98340.56;5022900;28;20420;-64
2023/04/15 01:00:13;;;;;;;84.70;43.97;;;;;;;22.77;54.98;98338.66;5005907;28;20719;-62
2023/04/15 01:02:42;;;;;;;91.15;41.25;;;;;;;22.79;55.19;98344.63;5023652;28;20530;-61
2023/04/15 01:05:12;;;;;;;89.82;42.63;;;;;;;22.81;55.32;98342.41;5027169;28;20111;-61
2023/04/15 01:07:42;;;;;;;84.97;40.22;;;;;;;22.81;55.30;98342.41;5006945;28;20045;-63
2023/04/15 01:10:11;;;;;;;89.28;40.92;;;;;;;22.82;55.75;98344.03;5006356;28;20057;-62
2023/04/15 01:12:43;;;;;;;86.63;39.60;;;;;;;22.83;55.70;98351.88;5025104;28;20076;-62
2023/04/15 01:15:13;;;;;;;77.15;39.95;;;;;;;22.87;56.05;98354.00;5059298;28;20059;-63
2023/04/15 01:17:43;;;;;;;75.03;38.65;;;;;;;22.89;55.71;98352.63;5059575;28;20321;-62
2023/04/15 01:20:14;;;;;;;75.32;38.00;;;;;;;22.93;55.59;98364.47;5043931;28;20172;-62
2023/04/15 01:22:45;;;;;;;74.93;38.40;;;;;;;22.97;55.65;98365.53;5026064;28;20045;-63
2023/04/15 01:25:18;;;;;;;72.80;37.22;;;;;;;23.04;55.77;98363.34;5026312;28;20064;-66
2023/04/15 01:27:48;;;;;;;75.28;34.47;;;;;;;23.09;55.97;98374.09;5026016;28;20068;-63
2023/04/15 01:30:17;;;;;;;71.35;36.47;;;;;;;23.13;56.05;98369.75;5025988;28;20118;-61
2023/04/15 01:32:46;;;;;;;74.47;35.35;;;;;;;23.23;56.10;98377.75;5025662;28;20049;-62
2023/04/15 01:35:16;;;;;;;65.93;35.35;;;;;;;23.29;56.30;98371.22;5025586;28;20540;-63
2023/04/15 01:37:46;;;;;;;75.05;34.10;;;;;;;23.38;55.13;98379.53;5031670;28;20044;-62
2023/04/15 01:40:17;;;;;;;67.82;33.58;;;;;;;23.46;56.29;98370.03;5063398;28;20110;-61
2023/04/15 01:42:46;;;;;;;66.50;32.72;;;;;;;23.58;55.41;98374.00;5051506;28;20048;-63
2023/04/15 01:45:16;;;;;;;65.38;30.90;;;;;;;23.64;55.77;98378.25;5043489;28;20122;-63
2023/04/15 01:47:45;;;;;;;61.60;30.17;;;;;;;23.80;56.07;98375.41;5025178;28;20044;-62
2023/04/15 01:50:19;;;;;;;59.40;30.55;;;;;;;23.87;56.08;98376.69;5059836;28;20053;-61
2023/04/15 01:52:48;;;;;;;60.65;30.35;;;;;;;23.94;56.10;98379.84;5043151;28;20388;-61
2023/04/15 01:55:18;;;;;;;54.85;28.50;;;;;;;24.07;55.51;98378.38;5025823;28;20488;-64
2023/04/15 01:57:47;;;;;;;58.42;27.63;;;;;;;24.15;55.24;98375.03;5026228;28;20075;-62
2023/04/15 02:00:17;;;;;;;56.42;28.63;;;;;;;24.27;55.03;98378.16;5024903;28;20078;-62
2023/04/15 02:02:46;;;;;;;60.63;27.10;;;;;;;24.42;53.65;98377.16;5025404;28;20067;-62
2023/04/15 02:05:16;;;;;;;63.17;27.00;;;;;;;24.57;53.36;98374.25;5042385;28;20072;-61
2023/04/15 02:07:48;;;;;;;64.82;33.10;;;;;;;24.75;52.63;98376.16;5042230;28;20149;-62
2023/04/15 02:10:17;;;;;;;77.55;35.20;;;;;;;24.90;51.06;98378.72;5042380;28;20057;-62
2023/04/15 02:12:47;;;;;;;72.57;30.63;;;;;;;25.10;50.86;98383.00;5057338;28;20045;-60
2023/04/15 02:15:16;;;;;;;65.07;28.52;;;;;;;25.39;49.91;98385.53;5042181;28;20175;-61
2023/04/15 02:17:49;;;;;;;66.55;28.85;;;;;;;25.96;50.11;98391.63;5025010;28;20045;-61
2023/04/15 02:20:20;;;;;;;55.38;25.23;;;;;;;26.68;48.53;98384.50;5022159;28;20500;-62
2023/04/15 02:22:50;;;;;;;55.03;23.55;;;;;;;27.33;46.76;98397.69;5030510;28;20064;-61
2023/04/15 02:25:19;;;;;;;46.53;23.73;;;;;;;27.85;45.48;98391.50;5042390;28;20088;-62
2023/04/15 02:27:48;;;;;;;46.03;21.88;;;;;;;28.15;43.80;98395.34;5043672;28;20048;-62
2023/04/15 02:30:18;;;;;;;45.80;22.38;;;;;;;28.33;42.18;98396.22;5040734;28;20045;-62
2023/04/15 02:32:48;;;;;;;45.13;21.45;;;;;;;28.85;42.04;98408.09;5047178;28;20085;-64
2023/04/15 02:35:18;;;;;;;45.00;22.05;;;;;;;28.82;43.28;98408.69;5038842;28;20232;-61
2023/04/15 02:37:48;;;;;;;45.38;20.38;;;;;;;28.74;42.47;98421.22;5013984;28;20045;-62
2023/04/15 02:40:18;;;;;;;66.40;26.30;;;;;;;28.77;42.70;98422.47;5024289;28;20472;-63
2023/04/15 02:42:48;;;;;;;52.65;24.67;;;;;;;28.74;41.81;98423.13;5042049;28;20053;-62
2023/04/15 02:45:22;;;;;;;50.78;24.52;;;;;;;28.53;42.71;98418.25;5024587;28;20736;-63
2023/04/15 02:47:52;;;;;;;63.85;30.33;;;;;;;28.31;42.64;98421.06;5003540;28;20059;-62
2023/04/15 02:50:22;;;;;;;62.00;29.95;;;;;;;28.33;43.49;98435.16;5005213;28;21183;-62
2023/04/15 02:52:51;;;;;;;59.97;29.65;;;;;;;28.21;45.12;98426.78;5009259;28;20622;-62
2023/04/15 02:55:21;;;;;;;69.95;31.40;;;;;;;28.08;45.56;98433.09;4992560;28;20080;-61
2023/04/15 02:57:50;;;;;;;94.05;37.72;;;;;;;27.92;46.07;98440.88;5024676;28;20076;-62
2023/04/15 03:00:20;;;;;;;74.50;34.08;;;;;;;27.65;45.08;98444.56;5006450;28;20477;-62
2023/04/15 03:02:55;;;;;;;66.50;33.90;;;;;;;27.64;45.19;98440.22;5008940;28;20829;-63
2023/04/15 03:05:24;;;;;;;74.90;32.33;;;;;;;27.66;46.47;98448.09;5032451;28;20060;-61
2023/04/15 03:07:54;;;;;;;56.30;27.30;;;;;;;27.59;45.84;98439.53;5017185;28;20116;-61
2023/04/15 03:10:24;;;;;;;52.28;24.13;;;;;;;27.59;45.72;98448.50;4989367;28;20069;-61
2023/04/15 03:12:54;;;;;;;52.67;24.45;;;;;;;27.61;45.37;98448.19;4999322;28;20176;-62
2023/04/15 03:15:24;;;;;;;82.47;30.48;;;;;;;27.45;45.29;98446.91;5005334;28;20061;-61
2023/04/15 03:17:54;;;;;;;69.10;28.75;;;;;;;27.48;45.09;98452.59;4999006;28;20068;-61
2023/04/15 03:20:24;;;;;;;64.25;24.17;;;;;;;27.61;44.15;98459.09;5025516;28;20537;-61
2023/04/15 03:22:53;;;;;;;55.55;21.63;;;;;;;27.70;43.72;98452.56;5025802;28;20046;-62
2023/04/15 03:25:25;;;;;;;59.08;24.67;;;;;;;27.74;43.63;98458.22;5007653;28;20598;-64
2023/04/15 03:27:55;;;;;;;46.22;21.65;;;;;;;27.73;41.87;98463.97;5025711;28;20057;-63
2023/04/15 03:30:25;;;;;;;42.53;18.45;;;;;;;27.91;42.85;98462.97;5008322;28;20144;-62
2023/04/15 03:32:55;;;;;;;43.63;18.67;;;;;;;28.01;44.49;98470.88;5025644;28;20042;-62
2023/04/15 03:35:25;;;;;;;34.42;17.27;;;;;;;28.06;43.22;98476.97;5008392;28;20045;-62
2023/04/15 03:37:55;;;;;;;35.13;15.80;;;;;;;28.17;41.93;98469.38;5025986;28;20140;-62
2023/04/15 03:40:24;;;;;;;34.72;16.05;;;;;;;28.23;42.35;98472.78;5026745;28;20059;-63
2023/04/15 03:42:53;;;;;;;50.42;17.17;;;;;;;28.33;39.66;98475.22;5036080;28;20058;-61
2023/04/15 03:45:23;;;;;;;36.85;16.02;;;;;;;28.41;40.89;98477.97;5040199;28;20044;-62
2023/04/15 03:47:52;;;;;;;36.55;14.57;;;;;;;28.44;38.36;98482.81;5037182;28;20084;-62
2023/04/15 03:50:22;;;;;;;27.13;13.18;;;;;;;28.51;38.82;98482.34;5024880;28;20386;-60
2023/04/15 03:52:51;;;;;;;27.80;12.10;;;;;;;28.62;38.64;98486.41;5008751;28;20088;-62
2023/04/15 03:55:20;;;;;;;28.20;12.15;;;;;;;28.70;39.68;98493.84;5025198;28;20057;-61
2023/04/15 03:57:50;;;;;;;36.10;12.38;;;;;;;28.83;38.92;98487.47;5025735;28;20790;-61
2023/04/15 04:00:19;;;;;;;38.50;12.27;;;;;;;29.05;35.70;98481.09;5025243;28;20050;-62
2023/04/15 04:02:49;;;;;;;21.83;11.63;;;;;;;29.19;37.56;98494.59;5025371;28;20628;-61
2023/04/15 04:05:18;;;;;;;29.35;11.18;;;;;;;29.27;38.02;98486.41;5024998;28;20887;-61
2023/04/15 04:07:48;;;;;;;32.08;11.57;;;;;;;29.51;37.87;98488.72;5025463;28;20484;-61
2023/04/15 04:10:17;;;;;;;29.73;11.60;;;;;;;29.53;37.53;98488.38;5007527;28;20056;-61
2023/04/15 04:12:47;;;;;;;22.92;10.27;;;;;;;29.60;38.32;98492.25;5025553;28;20044;-61
2023/04/15 04:15:16;;;;;;;22.35;9.73;;;;;;;29.70;38.04;98502.00;5024487;28;20049;-62
2023/04/15 04:17:45;;;;;;;28.48;11.13;;;;;;;29.81;38.27;98497.84;5023969;28;20073;-61
2023/04/15 04:20:15;;;;;;;23.50;10.85;;;;;;;29.98;35.06;98505.22;5023228;28;20131;-62
2023/04/15 04:22:45;;;;;;;33.95;10.40;;;;;;;30.06;36.41;98501.66;5024097;28;20056;-61
2023/04/15 04:25:15;;;;;;;21.77;10.55;;;;;;;30.29;36.14;98512.06;5024776;28;20049;-61
2023/04/15 04:27:44;;;;;;;31.65;11.35;;;;;;;30.37;36.70;98501.44;5024020;28;20045;-60
2023/04/15 04:30:13;;;;;;;32.22;11.68;;;;;;;30.62;37.04;98508.78;5022854;28;20146;-60
2023/04/15 04:32:43;;;;;;;24.23;10.38;;;;;;;30.84;36.42;98505.78;5025092;28;20042;-60
2023/04/15 04:35:12;;;;;;;25.70;9.57;;;;;;;31.24;33.73;98516.34;5025004;28;20107;-61
2023/04/15 04:37:42;;;;;;;25.80;10.20;;;;;;;31.45;34.06;98515.22;5025153;28;20073;-64
2023/04/15 04:40:12;;;;;;;29.83;10.13;;;;;;;31.46;35.84;98518.75;5024581;28;20049;-59
2023/04/15 04:42:41;;;;;;;28.27;10.00;;;;;;;31.48;36.33;98525.50;5024352;28;20045;-60
2023/04/15 04:45:10;;;;;;;33.50;10.45;;;;;;;31.65;36.06;98513.63;5024218;28;20147;-58
2023/04/15 04:47:40;;;;;;;28.13;11.57;;;;;;;31.80;35.79;98512.22;5039238;28;20107;-58
2023/04/15 04:50:10;;;;;;;29.80;11.25;;;;;;;31.96;32.59;98508.50;5044365;28;20155;-59
2023/04/15 04:52:40;;;;;;;27.38;9.35;;;;;;;32.26;31.39;98511.16;5033500;28;20052;-57
2023/04/15 04:55:09;;;;;;;24.83;9.02;;;;;;;32.40;33.83;98515.16;5040360;28;20063;-56
2023/04/15 04:57:38;;;;;;;28.85;9.25;;;;;;;32.49;32.99;98513.13;5042558;28;20040;-58
2023/04/15 05:00:08;;;;;;;26.40;9.98;;;;;;;32.40;32.71;98517.09;5032000;28;20131;-58
2023/04/15 05:02:38;;;;;;;38.25;10.95;;;;;;;32.69;31.33;98505.97;5055026;28;20057;-58
2023/04/15 05:05:09;;;;;;;29.80;9.45;;;;;;;33.04;27.40;98511.00;5040038;28;20099;-59
2023/04/15 05:07:39;;;;;;;37.83;10.95;;;;;;;33.28;31.74;98509.03;5042636;28;20048;-59
2023/04/15 05:10:08;;;;;;;36.47;10.65;;;;;;;33.27;27.47;98506.66;5044021;28;20059;-59
2023/04/15 05:12:37;;;;;;;26.27;8.23;;;;;;;33.26;27.45;98505.03;5040800;28;20073;-60
2023/04/15 05:15:08;;;;;;;26.88;8.13;;;;;;;33.28;30.48;98514.53;5037151;28;20044;-60
2023/04/15 05:17:37;;;;;;;21.92;7.93;;;;;;;33.33;29.96;98508.00;5035485;28;20060;-60
2023/04/15 05:20:07;;;;;;;20.13;7.80;;;;;;;33.40;29.30;98505.47;5043921;28;20139;-59
2023/04/15 05:22:36;;;;;;;26.15;7.15;;;;;;;33.48;30.11;98503.72;5040647;28;20048;-59
2023/04/15 05:25:06;;;;;;;21.23;6.90;;;;;;;33.78;25.33;98507.78;5035182;28;20469;-59
2023/04/15 05:27:36;;;;;;;22.58;9.38;;;;;;;33.89;30.70;98508.09;5040244;28;20555;-61
2023/04/15 05:30:06;;;;;;;21.77;7.93;;;;;;;33.75;29.89;98501.03;5043533;28;20498;-62
2023/04/15 05:32:35;;;;;;;17.75;6.93;;;;;;;33.74;31.88;98499.44;5039666;28;20063;-61
2023/04/15 05:35:05;;;;;;;28.40;7.30;;;;;;;33.90;31.17;98498.69;5023682;28;20066;-59
2023/04/15 05:37:35;;;;;;;19.23;6.80;;;;;;;33.80;33.39;98505.50;5025407;28;20053;-60
2023/04/15 05:40:04;;;;;;;22.73;7.43;;;;;;;33.74;30.93;98502.19;5043491;28;20052;-62
2023/04/15 05:42:35;;;;;;;20.42;6.80;;;;;;;33.30;31.48;98498.50;5037567;28;20045;-62
2023/04/15 05:45:07;;;;;;;20.38;7.10;;;;;;;33.01;33.65;98489.75;5027959;28;20036;-61
2023/04/15 05:47:37;;;;;;;23.25;7.65;;;;;;;32.65;34.99;98496.03;5058820;28;20048;-61
2023/04/15 05:50:07;;;;;;;36.17;8.05;;;;;;;33.14;29.49;98497.66;5042142;28;20470;-60
2023/04/15 05:52:36;;;;;;;25.00;7.03;;;;;;;33.57;27.78;98498.91;5042758;28;20200;-63
2023/04/15 05:55:06;;;;;;;29.70;7.78;;;;;;;33.81;25.80;98496.88;5042461;28;20051;-62
2023/04/15 05:57:36;;;;;;;28.42;6.90;;;;;;;34.92;18.82;98495.84;5042217;28;20542;-61
2023/04/15 06:00:06;;;;;;;21.35;6.32;;;;;;;35.46;20.14;98490.41;5025099;28;20127;-63
2023/04/15 06:02:36;;;;;;;28.75;6.65;;;;;;;35.03;23.60;98493.34;5041576;28;20152;-63
2023/04/15 06:05:10;;;;;;;17.40;6.95;;;;;;;34.94;26.96;98496.31;5041353;28;20044;-62
2023/04/15 06:07:40;;;;;;;23.13;7.75;;;;;;;34.87;26.48;98489.84;5032825;28;20546;-62
2023/04/15 06:10:10;;;;;;;26.05;7.18;;;;;;;34.81;23.68;98485.75;5025032;28;20045;-61
2023/04/15 06:12:39;;;;;;;30.02;8.40;;;;;;;35.09;20.64;98483.66;5041747;28;20069;-61
2023/04/15 06:15:10;;;;;;;22.75;6.95;;;;;;;35.40;22.98;98480.84;5042295;28;20052;-60
2023/04/15 06:17:39;;;;;;;16.17;5.88;;;;;;;35.12;23.56;98480.19;5034183;28;20144;-57
2023/04/15 06:20:09;;;;;;;19.58;6.32;;;;;;;34.91;26.03;98476.97;5033201;28;20050;-59
2023/04/15 06:22:38;;;;;;;28.52;6.65;;;;;;;34.76;27.14;98472.25;5030513;28;20349;-60
2023/04/15 06:25:08;;;;;;;20.75;6.35;;;;;;;34.51;26.88;98466.94;5042172;28;20428;-59
2023/04/15 06:27:37;;;;;;;23.65;6.88;;;;;;;34.46;29.29;98467.22;5046088;28;20110;-59
2023/04/15 06:30:08;;;;;;;21.65;6.18;;;;;;;34.32;28.53;98464.09;5046886;28;20463;-60
2023/04/15 06:32:37;;;;;;;20.25;6.22;;;;;;;34.21;29.63;98457.53;5046663;28;20053;-61
2023/04/15 06:35:07;;;;;;;25.83;5.70;;;;;;;34.34;26.04;98461.81;5046898;28;20053;-61
2023/04/15 06:37:36;;;;;;;19.30;6.07;;;;;;;34.49;23.88;98454.69;5047170;28;20055;-60
2023/04/15 06:40:07;;;;;;;20.95;6.47;;;;;;;34.58;24.93;98458.06;5029985;28;20124;-62
2023/04/15 06:42:37;;;;;;;15.75;6.35;;;;;;;34.62;22.78;98445.97;5046851;28;20057;-59
2023/04/15 06:45:07;;;;;;;22.50;6.40;;;;;;;34.67;23.53;98445.75;5046643;28;20380;-59
2023/04/15 06:47:37;;;;;;;19.35;5.15;;;;;;;35.19;21.48;98439.06;5038178;28;20552;-60
2023/04/15 06:50:08;;;;;;;19.08;6.50;;;;;;;35.08;22.66;98446.28;5042986;28;20140;-61
2023/04/15 06:52:37;;;;;;;21.20;5.43;;;;;;;35.04;25.43;98439.91;5060952;28;20052;-61
2023/04/15 06:55:07;;;;;;;14.75;5.00;;;;;;;35.01;22.49;98435.09;5029205;28;20045;-62
2023/04/15 06:57:37;;;;;;;12.25;4.72;;;;;;;35.31;23.24;98429.88;5046483;28;20049;-61
2023/04/15 07:00:07;;;;;;;11.50;5.80;;;;;;;35.11;23.73;98429.81;5046495;28;20372;-58
2023/04/15 07:02:36;;;;;;;18.58;5.05;;;;;;;35.07;20.27;98428.94;5046326;28;20084;-60
2023/04/15 07:05:07;;;;;;;14.90;5.50;;;;;;;35.29;22.82;98419.22;5045416;28;20045;-60
2023/04/15 07:07:37;;;;;;;23.38;4.32;;;;;;;35.17;21.08;98416.59;5060162;28;20566;-60
2023/04/15 07:10:07;;;;;;;16.98;4.82;;;;;;;35.45;17.85;98414.41;5028287;28;20056;-58
2023/04/15 07:12:36;;;;;;;14.30;4.82;;;;;;;35.51;19.90;98414.94;5044185;28;20080;-62
2023/04/15 07:15:06;;;;;;;20.25;5.05;;;;;;;35.81;19.62;98407.66;5042500;28;20048;-63
2023/04/15 07:17:36;;;;;;;13.75;4.35;;;;;;;36.14;17.50;98409.84;5040005;28;20056;-60
2023/04/15 07:20:06;;;;;;;21.42;4.93;;;;;;;36.20;20.21;98408.41;5039093;28;20059;-59
2023/04/15 07:22:35;;;;;;;18.75;5.40;;;;;;;36.42;15.87;98404.03;5038906;28;20060;-61
2023/04/15 07:25:06;;;;;;;18.63;4.95;;;;;;;36.37;17.34;98401.56;5040983;28;20072;-61
2023/04/15 07:27:37;;;;;;;23.80;4.32;;;;;;;36.79;15.91;98396.72;5033372;28;20076;-61
2023/04/15 07:30:08;;;;;;;17.48;4.13;;;;;;;36.90;16.20;98400.44;5021324;28;20064;-60
2023/04/15 07:32:38;;;;;;;14.82;4.25;;;;;;;36.91;19.09;98398.47;5039099;28;20049;-62
2023/04/15 07:35:08;;;;;;;15.15;4.57;;;;;;;36.91;18.08;98384.66;5042829;28;20591;-64
2023/04/15 07:37:38;;;;;;;14.85;4.55;;;;;;;36.72;16.16;98393.84;5048539;28;20057;-60
2023/04/15 07:40:07;;;;;;;21.58;5.03;;;;;;;36.53;18.55;98388.41;5042859;28;20055;-61
2023/04/15 07:42:37;;;;;;;12.50;4.55;;;;;;;36.81;18.28;98377.03;5047111;28;20189;-59
2023/04/15 07:45:08;;;;;;;16.25;4.75;;;;;;;36.89;20.61;98370.41;5031459;28;20037;-60
2023/04/15 07:47:39;;;;;;;14.30;4.57;;;;;;;36.88;18.46;98377.91;5009410;28;20097;-58
2023/04/15 07:50:10;;;;;;;13.10;4.55;;;;;;;37.02;19.13;98373.72;5012832;28;20401;-59
2023/04/15 07:52:40;;;;;;;13.77;4.80;;;;;;;37.06;19.17;98372.63;5011064;28;20099;-61
2023/04/15 07:55:10;;;;;;;18.73;4.93;;;;;;;37.20;19.54;98366.50;5015651;28;20577;-63
2023/04/15 07:57:39;;;;;;;18.95;4.85;;;;;;;37.27;17.78;98363.81;5011247;28;20045;-62
2023/04/15 08:00:10;;;;;;;17.73;4.68;;;;;;;37.17;18.63;98354.25;5020540;28;20056;-60
2023/04/15 08:02:41;;;;;;;17.25;4.63;;;;;;;37.05;20.35;98353.66;5017818;28;20053;-61
2023/04/15 08:05:12;;;;;;;16.67;4.47;;;;;;;37.07;18.05;98354.09;5020555;28;20654;-63
2023/04/15 08:07:42;;;;;;;15.82;4.38;;;;;;;36.92;19.61;98344.81;5016185;28;20049;-61
2023/04/15 08:10:12;;;;;;;14.45;4.70;;;;;;;36.82;19.82;98340.72;5040734;28;20115;-62
2023/04/15 08:12:42;;;;;;;20.67;4.60;;;;;;;36.95;17.68;98340.53;5023058;28;20132;-63
2023/04/15 08:15:12;;;;;;;15.95;4.72;;;;;;;36.88;17.79;98330.16;5023338;28;20064;-63
2023/04/15 08:17:43;;;;;;;12.52;4.47;;;;;;;36.83;18.61;98327.72;5023749;28;20041;-63
2023/04/15 08:20:13;;;;;;;16.08;4.63;;;;;;;36.82;20.94;98320.63;5021605;28;20049;-65
2023/04/15 08:22:43;;;;;;;13.48;4.25;;;;;;;36.76;20.50;98325.69;5022799;28;20049;-62
2023/04/15 08:25:13;;;;;;;15.38;4.57;;;;;;;36.66;16.75;98311.72;5024154;28;20056;-60
2023/04/15 08:27:43;;;;;;;8.90;4.13;;;;;;;36.13;20.49;98305.41;5019734;28;20053;-63
2023/04/15 08:30:13;;;;;;;12.35;3.95;;;;;;;36.32;20.43;98314.41;5023386;28;20132;-63
2023/04/15 08:32:48;;;;;;;17.98;4.40;;;;;;;36.40;18.81;98304.25;5023635;28;20136;-59
2023/04/15 08:35:17;;;;;;;12.13;4.43;;;;;;;36.32;17.01;98294.28;5021228;28;20472;-62
2023/04/15 08:37:47;;;;;;;12.65;3.53;;;;;;;36.11;20.52;98297.50;5020502;28;20081;-62
2023/04/15 08:40:16;;;;;;;12.45;3.78;;;;;;;36.16;18.22;98291.69;5023072;28;20530;-61
2023/04/15 08:42:51;;;;;;;13.05;3.22;;;;;;;36.13;18.99;98286.91;5021411;28;20077;-63
2023/04/15 08:45:22;;;;;;;14.93;3.63;;;;;;;35.78;19.73;98284.38;5023402;28;21580;-64
2023/04/15 08:47:56;;;;;;;11.52;3.00;;;;;;;35.56;21.40;98271.34;5020449;28;20771;-61
2023/04/15 08:50:28;;;;;;;15.77;4.05;;;;;;;35.34;20.35;98274.91;5021587;28;20053;-62
2023/04/15 08:53:00;;;;;;;16.07;4.17;;;;;;;35.39;17.63;98277.34;5023109;28;20049;-62
2023/04/15 08:55:35;;;;;;;15.68;3.30;;;;;;;35.54;17.23;98266.19;5022154;28;20132;-61
2023/04/15 08:58:06;;;;;;;12.60;3.75;;;;;;;35.47;21.91;98259.78;5015369;28;20227;-61
2023/04/15 09:00:35;;;;;;;13.10;3.28;;;;;;;35.25;19.05;98258.59;5023236;28;20057;-57
2023/04/15 09:03:08;;;;;;;12.27;3.88;;;;;;;35.33;18.38;98249.31;5020033;28;20200;-64
2023/04/15 09:05:37;;;;;;;;;;;;;;;35.65;18.55;98249.09;5022102;28;20050;-59
2023/04/15 09:08:07;;;;;;;12.52;3.53;;;;;;;35.57;20.61;98240.69;5022624;28;19929;-56
2023/04/15 09:10:37;;;;;;;13.07;3.47;;;;;;;35.38;21.34;98239.94;5005395;28;20055;-60
2023/04/15 09:13:08;;;;;;;17.30;3.92;;;;;;;35.26;22.35;98229.91;4999497;28;20108;-66
2023/04/15 09:15:40;;;;;;;22.88;4.03;;;;;;;35.12;19.07;98232.38;5020169;28;20058;-63
2023/04/15 09:18:12;;;;;;;10.98;4.25;;;;;;;34.96;18.47;98223.44;5017235;28;20050;-62
2023/04/15 09:20:42;;;;;;;24.23;4.88;;;;;;;34.90;21.89;98222.13;5022109;28;20053;-62
2023/04/15 09:23:14;;;;;;;18.20;3.47;;;;;;;34.71;20.60;98211.94;5018462;28;20405;-61
2023/04/15 09:25:45;;;;;;;16.95;3.90;;;;;;;34.77;21.14;98210.47;5017831;28;20103;-63
2023/04/15 09:28:25;;;;;;;12.13;3.63;;;;;;;35.12;19.12;98205.66;5020605;28;20065;-63
2023/04/15 09:31:02;;;;;;;11.48;3.60;;;;;;;35.51;16.79;98198.06;5021377;28;20507;-63
2023/04/15 09:33:31;;;;;;;11.63;3.75;;;;;;;35.40;16.19;98199.88;5021850;28;20045;-61
2023/04/15 09:36:04;;;;;;;12.63;3.60;;;;;;;35.37;18.31;98192.31;5005667;28;20049;-60
2023/04/15 09:38:33;;;;;;;15.70;3.38;;;;;;;35.29;18.32;98185.09;5019992;28;20568;-63
2023/04/15 09:41:17;;;;;;;15.05;3.88;;;;;;;35.39;15.10;98187.25;5020473;28;20045;-60
2023/04/15 09:43:46;;;;;;;16.92;3.80;;;;;;;35.14;17.01;98183.25;5003667;28;20581;-62
2023/04/15 09:46:16;;;;;;;21.27;4.55;;;;;;;35.35;18.51;98182.84;5025557;28;20044;-61
2023/04/15 09:48:45;;;;;;;17.05;3.55;;;;;;;35.08;20.76;98169.00;5041915;28;20383;-61
2023/04/15 09:51:15;;;;;;;10.25;3.70;;;;;;;35.03;19.69;98160.22;5041335;28;20711;-61
2023/04/15 09:53:44;;;;;;;18.83;4.20;;;;;;;35.21;16.15;98169.63;5043267;28;20044;-60
2023/04/15 09:56:14;;;;;;;22.58;4.43;;;;;;;34.94;20.25;98165.19;5027218;28;20802;-62
2023/04/15 09:58:45;;;;;;;13.95;4.57;;;;;;;34.77;20.23;98147.19;5040544;28;20049;-61
2023/04/15 10:01:15;;;;;;;13.77;3.70;;;;;;;34.58;23.22;98156.22;5039048;28;20362;-60
2023/04/15 10:03:45;;;;;;;12.43;3.75;;;;;;;34.39;23.08;98138.97;5041808;28;20049;-62
2023/04/15 10:06:16;;;;;;;16.30;3.83;;;;;;;34.23;23.17;98141.78;5056540;28;20069;-62
2023/04/15 10:08:46;;;;;;;14.93;3.78;;;;;;;33.94;22.69;98128.56;5040999;28;20050;-61
2023/04/15 10:11:19;;;;;;;12.95;3.80;;;;;;;33.54;22.79;98132.34;5024006;28;20131;-61
2023/04/15 10:13:50;;;;;;;19.85;3.72;;;;;;;33.73;21.27;98135.16;5041733;28;20479;-60
2023/04/15 10:16:21;;;;;;;13.70;4.10;;;;;;;34.20;19.86;98132.31;5043228;28;20546;-63
2023/04/15 10:18:55;;;;;;;16.47;4.93;;;;;;;34.07;22.06;98130.03;5058455;28;20538;-64
2023/04/15 10:21:24;;;;;;;16.20;4.35;;;;;;;34.14;21.29;98128.22;5041507;28;20052;-66
2023/04/15 10:23:54;;;;;;;20.00;4.30;;;;;;;34.68;19.72;98121.88;5042309;28;20052;-60
2023/04/15 10:26:25;;;;;;;12.05;4.45;;;;;;;34.30;22.18;98119.91;5040916;28;20045;-61
2023/04/15 10:28:55;;;;;;;20.50;3.95;;;;;;;33.99;22.70;98112.56;5041316;28;20049;-62
2023/04/15 10:31:28;;;;;;;14.15;4.00;;;;;;;33.85;23.81;98117.78;5041238;28;20055;-62
2023/04/15 10:34:04;;;;;;;18.77;5.20;;;;;;;33.97;20.99;98114.09;5041827;28;20052;-61
2023/04/15 10:36:33;;;;;;;16.67;4.45;;;;;;;33.99;19.68;98115.31;5040040;28;20052;-62
2023/04/15 10:39:39;;;;;;;10.65;3.75;;;;;;;33.93;22.78;98115.97;5039822;28;20037;-60
2023/04/15 10:42:11;;;;;;;18.20;3.88;;;;;;;34.14;23.20;98110.91;5039324;28;20045;-60
2023/04/15 10:44:56;;;;;;;18.80;4.00;;;;;;;34.08;17.85;98109.63;5039008;28;20044;-60
2023/04/15 10:47:27;;;;;;;8.25;3.50;;;;;;;34.05;22.37;98107.59;5023106;28;20486;-59
2023/04/15 10:49:59;;;;;;;14.50;3.63;;;;;;;33.91;21.89;98112.78;5038210;28;20778;-59
2023/04/15 10:52:29;;;;;;;16.60;4.32;;;;;;;33.81;22.00;98100.41;5042393;28;20350;-60
2023/04/15 10:55:23;;;;;;;17.05;4.18;;;;;;;34.15;20.68;98091.31;5039122;28;20037;-61
2023/04/15 10:57:54;;;;;;;19.08;3.70;;;;;;;34.08;20.38;98090.38;5032134;28;20155;-59
2023/04/15 11:00:31;;;;;;;14.38;4.78;;;;;;;33.93;22.20;98091.25;5039408;28;20636;-59
2023/04/15 11:03:08;;;;;;;22.38;4.22;;;;;;;33.93;18.78;98099.47;5036913;28;20049;-59
2023/04/15 11:05:41;;;;;;;18.48;3.92;;;;;;;33.75;22.12;98086.16;5033036;28;20062;-56
2023/04/15 11:08:12;;;;;;;15.00;3.15;;;;;;;33.80;23.38;98093.31;5027070;28;20049;-61
2023/04/15 11:10:41;;;;;;;9.63;3.90;;;;;;;33.91;18.91;98093.53;5030830;28;20103;-61
2023/04/15 11:13:11;;;;;;;16.65;3.40;;;;;;;33.99;19.11;98098.06;5035980;28;20061;-60
2023/04/15 11:15:45;;;;;;;16.02;3.00;;;;;;;34.23;16.87;98081.28;5041400;28;20083;-62
2023/04/15 11:18:15;;;;;;;12.07;3.05;;;;;;;34.20;17.30;98084.75;5037841;28;20057;-60
2023/04/15 11:20:47;;;;;;;16.30;3.47;;;;;;;34.01;18.06;98085.53;5031483;28;20049;-61
2023/04/15 11:23:27;;;;;;;9.75;2.75;;;;;;;33.97;21.32;98089.34;5033353;28;20049;-61
2023/04/15 11:25:58;;;;;;;15.80;4.35;;;;;;;33.87;20.97;98087.19;5039939;28;20049;-60
2023/04/15 11:28:30;;;;;;;15.55;3.88;;;;;;;33.61;23.05;98094.06;5025382;28;20049;-59
2023/04/15 11:31:06;;;;;;;14.32;3.67;;;;;;;33.47;20.97;98082.75;5024340;28;20060;-59
2023/04/15 11:33:36;;;;;;;11.75;3.10;;;;;;;33.36;21.80;98085.25;5033581;28;20510;-61
2023/04/15 11:36:05;;;;;;;14.00;3.95;;;;;;;33.30;20.85;98078.44;5041329;28;20130;-60